sensor_id;sensor_type;location;lat;lon;timestamp;P1;durP1;ratioP1;P2;durP2;ratioP2
3875;SDS011;1953;51.222;6.624;2023-07-29T00:04:30;6.73;;;4.13;;
3875;SDS011;1953;51.222;6.624;2023-07-29T00:09:12;5.80;;;4.43;;
3875;SDS011;1953;51.222;6.624;2023-07-29T00:15:41;6.80;;;4.20;;
3875;SDS011;1953;51.222;6.624;2023-07-29T00:20:23;10.27;;;4.50;;
3875;SDS011;1953;51.222;6.624;2023-07-29T00:25:06;8.33;;;4.30;;
3875;SDS011;1953;51.222;6.624;2023-07-29T00:29:49;8.17;;;4.70;;
3875;SDS011;1953;51.222;6.624;2023-07-29T00:34:33;9.07;;;4.70;;
3875;SDS011;1953;51.222;6.624;2023-07-29T00:39:15;9.67;;;4.53;;
3875;SDS011;1953;51.222;6.624;2023-07-29T00:43:59;11.10;;;4.50;;
3875;SDS011;1953;51.222;6.624;2023-07-29T00:48:42;6.00;;;4.30;;
3875;SDS011;1953;51.222;6.624;2023-07-29T00:53:26;7.70;;;4.60;;
3875;SDS011;1953;51.222;6.624;2023-07-29T00:58:09;5.80;;;4.33;;
3875;SDS011;1953;51.222;6.624;2023-07-29T01:02:52;7.37;;;4.60;;
3875;SDS011;1953;51.222;6.624;2023-07-29T01:07:36;8.87;;;5.00;;
3875;SDS011;1953;51.222;6.624;2023-07-29T01:12:24;11.53;;;4.70;;
3875;SDS011;1953;51.222;6.624;2023-07-29T01:17:13;7.43;;;4.47;;
3875;SDS011;1953;51.222;6.624;2023-07-29T01:22:01;5.80;;;4.00;;
3875;SDS011;1953;51.222;6.624;2023-07-29T01:26:47;5.63;;;3.90;;
3875;SDS011;1953;51.222;6.624;2023-07-29T01:31:30;7.60;;;4.90;;
3875;SDS011;1953;51.222;6.624;2023-07-29T01:36:17;8.93;;;4.20;;
3875;SDS011;1953;51.222;6.624;2023-07-29T01:41:05;8.10;;;4.90;;
3875;SDS011;1953;51.222;6.624;2023-07-29T01:45:50;7.43;;;4.13;;
3875;SDS011;1953;51.222;6.624;2023-07-29T01:50:33;7.80;;;4.30;;
3875;SDS011;1953;51.222;6.624;2023-07-29T01:55:16;13.00;;;4.50;;
3875;SDS011;1953;51.222;6.624;2023-07-29T01:59:58;8.73;;;4.53;;
3875;SDS011;1953;51.222;6.624;2023-07-29T02:04:42;10.87;;;4.67;;
3875;SDS011;1953;51.222;6.624;2023-07-29T02:09:26;12.83;;;4.93;;
3875;SDS011;1953;51.222;6.624;2023-07-29T02:14:08;7.30;;;4.57;;
3875;SDS011;1953;51.222;6.624;2023-07-29T02:18:50;9.60;;;5.10;;
3875;SDS011;1953;51.222;6.624;2023-07-29T02:23:34;8.60;;;4.70;;
3875;SDS011;1953;51.222;6.624;2023-07-29T02:28:17;10.97;;;4.80;;
3875;SDS011;1953;51.222;6.624;2023-07-29T02:33:00;6.43;;;5.13;;
3875;SDS011;1953;51.222;6.624;2023-07-29T02:37:43;7.30;;;4.83;;
3875;SDS011;1953;51.222;6.624;2023-07-29T02:42:26;7.87;;;4.87;;
3875;SDS011;1953;51.222;6.624;2023-07-29T02:47:09;9.47;;;5.20;;
3875;SDS011;1953;51.222;6.624;2023-07-29T02:51:52;10.67;;;4.93;;
3875;SDS011;1953;51.222;6.624;2023-07-29T02:56:34;8.50;;;5.77;;
3875;SDS011;1953;51.222;6.624;2023-07-29T03:01:18;8.77;;;4.73;;
3875;SDS011;1953;51.222;6.624;2023-07-29T03:06:01;10.20;;;4.77;;
3875;SDS011;1953;51.222;6.624;2023-07-29T03:10:45;10.40;;;5.20;;
3875;SDS011;1953;51.222;6.624;2023-07-29T03:15:27;8.43;;;5.70;;
3875;SDS011;1953;51.222;6.624;2023-07-29T03:20:11;12.53;;;5.47;;
3875;SDS011;1953;51.222;6.624;2023-07-29T03:24:54;12.53;;;5.40;;
3875;SDS011;1953;51.222;6.624;2023-07-29T03:29:36;7.53;;;5.13;;
3875;SDS011;1953;51.222;6.624;2023-07-29T03:34:19;10.73;;;6.57;;
3875;SDS011;1953;51.222;6.624;2023-07-29T03:39:03;10.10;;;6.40;;
3875;SDS011;1953;51.222;6.624;2023-07-29T03:43:45;8.73;;;6.87;;
3875;SDS011;1953;51.222;6.624;2023-07-29T03:48:28;11.30;;;7.00;;
3875;SDS011;1953;51.222;6.624;2023-07-29T03:53:11;13.20;;;7.50;;
3875;SDS011;1953;51.222;6.624;2023-07-29T03:57:55;11.20;;;7.73;;
3875;SDS011;1953;51.222;6.624;2023-07-29T04:02:38;13.47;;;7.40;;
3875;SDS011;1953;51.222;6.624;2023-07-29T04:07:21;13.40;;;7.57;;
3875;SDS011;1953;51.222;6.624;2023-07-29T04:12:03;14.90;;;7.87;;
3875;SDS011;1953;51.222;6.624;2023-07-29T04:16:48;9.47;;;7.60;;
3875;SDS011;1953;51.222;6.624;2023-07-29T04:21:31;10.20;;;7.73;;
3875;SDS011;1953;51.222;6.624;2023-07-29T04:26:13;13.80;;;7.77;;
3875;SDS011;1953;51.222;6.624;2023-07-29T04:30:56;11.13;;;7.07;;
3875;SDS011;1953;51.222;6.624;2023-07-29T04:35:39;10.10;;;6.93;;
3875;SDS011;1953;51.222;6.624;2023-07-29T04:40:22;12.50;;;7.10;;
3875;SDS011;1953;51.222;6.624;2023-07-29T04:45:05;14.80;;;7.17;;
3875;SDS011;1953;51.222;6.624;2023-07-29T04:49:48;8.50;;;6.47;;
3875;SDS011;1953;51.222;6.624;2023-07-29T04:54:31;9.60;;;5.80;;
3875;SDS011;1953;51.222;6.624;2023-07-29T04:59:14;7.97;;;5.63;;
3875;SDS011;1953;51.222;6.624;2023-07-29T05:03:57;8.43;;;5.87;;
3875;SDS011;1953;51.222;6.624;2023-07-29T05:08:39;8.07;;;5.30;;
3875;SDS011;1953;51.222;6.624;2023-07-29T05:13:23;8.60;;;5.60;;
3875;SDS011;1953;51.222;6.624;2023-07-29T05:18:06;9.03;;;5.57;;
3875;SDS011;1953;51.222;6.624;2023-07-29T05:22:48;8.43;;;5.47;;
3875;SDS011;1953;51.222;6.624;2023-07-29T05:27:31;6.90;;;5.90;;
3875;SDS011;1953;51.222;6.624;2023-07-29T05:32:14;8.90;;;5.97;;
3875;SDS011;1953;51.222;6.624;2023-07-29T05:36:57;9.03;;;5.37;;
3875;SDS011;1953;51.222;6.624;2023-07-29T05:41:39;7.10;;;4.77;;
3875;SDS011;1953;51.222;6.624;2023-07-29T05:46:22;8.20;;;5.00;;
3875;SDS011;1953;51.222;6.624;2023-07-29T05:51:06;7.60;;;4.50;;
3875;SDS011;1953;51.222;6.624;2023-07-29T05:55:48;5.10;;;3.50;;
3875;SDS011;1953;51.222;6.624;2023-07-29T06:00:31;7.83;;;4.43;;
3875;SDS011;1953;51.222;6.624;2023-07-29T06:05:15;10.53;;;4.70;;
3875;SDS011;1953;51.222;6.624;2023-07-29T06:09:59;13.00;;;4.97;;
3875;SDS011;1953;51.222;6.624;2023-07-29T06:14:42;7.00;;;4.50;;
3875;SDS011;1953;51.222;6.624;2023-07-29T06:19:24;5.17;;;3.00;;
3875;SDS011;1953;51.222;6.624;2023-07-29T06:24:07;4.20;;;3.00;;
3875;SDS011;1953;51.222;6.624;2023-07-29T06:28:51;5.57;;;3.30;;
3875;SDS011;1953;51.222;6.624;2023-07-29T06:33:33;5.03;;;3.23;;
3875;SDS011;1953;51.222;6.624;2023-07-29T06:38:15;4.67;;;2.73;;
3875;SDS011;1953;51.222;6.624;2023-07-29T06:43:02;4.53;;;2.83;;
3875;SDS011;1953;51.222;6.624;2023-07-29T06:47:46;4.97;;;3.37;;
3875;SDS011;1953;51.222;6.624;2023-07-29T06:52:28;6.50;;;3.57;;
3875;SDS011;1953;51.222;6.624;2023-07-29T06:57:11;5.13;;;3.77;;
3875;SDS011;1953;51.222;6.624;2023-07-29T07:01:53;5.00;;;3.50;;
3875;SDS011;1953;51.222;6.624;2023-07-29T07:06:37;4.20;;;3.37;;
3875;SDS011;1953;51.222;6.624;2023-07-29T07:11:19;4.57;;;3.27;;
3875;SDS011;1953;51.222;6.624;2023-07-29T07:16:02;5.43;;;3.33;;
3875;SDS011;1953;51.222;6.624;2023-07-29T07:20:47;4.00;;;3.20;;
3875;SDS011;1953;51.222;6.624;2023-07-29T07:25:31;5.27;;;3.47;;
3875;SDS011;1953;51.222;6.624;2023-07-29T07:30:14;4.90;;;3.10;;
3875;SDS011;1953;51.222;6.624;2023-07-29T07:34:56;3.80;;;2.50;;
3875;SDS011;1953;51.222;6.624;2023-07-29T07:39:39;4.10;;;2.07;;
3875;SDS011;1953;51.222;6.624;2023-07-29T07:44:23;3.63;;;2.40;;
3875;SDS011;1953;51.222;6.624;2023-07-29T07:49:07;2.70;;;1.87;;
3875;SDS011;1953;51.222;6.624;2023-07-29T07:53:49;4.70;;;1.97;;
3875;SDS011;1953;51.222;6.624;2023-07-29T07:58:32;2.40;;;1.70;;
3875;SDS011;1953;51.222;6.624;2023-07-29T08:03:15;2.77;;;2.07;;
3875;SDS011;1953;51.222;6.624;2023-07-29T08:07:59;2.90;;;1.90;;
3875;SDS011;1953;51.222;6.624;2023-07-29T08:12:41;5.93;;;1.90;;
3875;SDS011;1953;51.222;6.624;2023-07-29T08:17:24;3.00;;;1.90;;
3875;SDS011;1953;51.222;6.624;2023-07-29T08:22:07;3.00;;;2.20;;
3875;SDS011;1953;51.222;6.624;2023-07-29T08:26:50;2.87;;;2.13;;
3875;SDS011;1953;51.222;6.624;2023-07-29T08:31:32;3.20;;;1.90;;
3875;SDS011;1953;51.222;6.624;2023-07-29T08:36:15;2.83;;;1.90;;
3875;SDS011;1953;51.222;6.624;2023-07-29T08:41:06;2.53;;;1.57;;
3875;SDS011;1953;51.222;6.624;2023-07-29T08:45:53;2.10;;;1.40;;
3875;SDS011;1953;51.222;6.624;2023-07-29T08:50:36;6.37;;;1.70;;
3875;SDS011;1953;51.222;6.624;2023-07-29T08:55:20;2.20;;;1.60;;
3875;SDS011;1953;51.222;6.624;2023-07-29T09:00:05;3.00;;;2.10;;
3875;SDS011;1953;51.222;6.624;2023-07-29T09:04:49;2.57;;;1.93;;
3875;SDS011;1953;51.222;6.624;2023-07-29T09:09:32;3.20;;;1.60;;
3875;SDS011;1953;51.222;6.624;2023-07-29T09:14:14;3.60;;;1.90;;
3875;SDS011;1953;51.222;6.624;2023-07-29T09:19:00;3.80;;;2.00;;
3875;SDS011;1953;51.222;6.624;2023-07-29T09:23:43;3.73;;;2.00;;
3875;SDS011;1953;51.222;6.624;2023-07-29T09:28:26;2.50;;;1.60;;
3875;SDS011;1953;51.222;6.624;2023-07-29T09:33:15;2.90;;;1.80;;
3875;SDS011;1953;51.222;6.624;2023-07-29T09:38:01;4.20;;;2.20;;
3875;SDS011;1953;51.222;6.624;2023-07-29T09:42:48;2.77;;;2.00;;
3875;SDS011;1953;51.222;6.624;2023-07-29T09:47:32;2.90;;;1.80;;
3875;SDS011;1953;51.222;6.624;2023-07-29T09:52:15;4.27;;;1.80;;
3875;SDS011;1953;51.222;6.624;2023-07-29T09:56:59;4.50;;;2.00;;
3875;SDS011;1953;51.222;6.624;2023-07-29T10:01:42;3.60;;;2.10;;
3875;SDS011;1953;51.222;6.624;2023-07-29T10:06:25;2.90;;;1.73;;
3875;SDS011;1953;51.222;6.624;2023-07-29T10:11:09;2.87;;;1.77;;
3875;SDS011;1953;51.222;6.624;2023-07-29T10:15:54;3.00;;;1.87;;
3875;SDS011;1953;51.222;6.624;2023-07-29T10:20:37;8.03;;;1.80;;
3875;SDS011;1953;51.222;6.624;2023-07-29T10:25:22;3.23;;;1.87;;
3875;SDS011;1953;51.222;6.624;2023-07-29T10:30:07;3.77;;;1.70;;
3875;SDS011;1953;51.222;6.624;2023-07-29T10:34:51;4.40;;;2.00;;
3875;SDS011;1953;51.222;6.624;2023-07-29T10:39:37;2.23;;;1.60;;
3875;SDS011;1953;51.222;6.624;2023-07-29T10:49:29;4.10;;;1.80;;
3875;SDS011;1953;51.222;6.624;2023-07-29T10:54:18;5.87;;;1.80;;
3875;SDS011;1953;51.222;6.624;2023-07-29T10:59:02;2.10;;;1.50;;
3875;SDS011;1953;51.222;6.624;2023-07-29T11:04:22;2.03;;;1.50;;
3875;SDS011;1953;51.222;6.624;2023-07-29T11:14:24;5.70;;;1.70;;
3875;SDS011;1953;51.222;6.624;2023-07-29T11:19:06;2.63;;;1.67;;
3875;SDS011;1953;51.222;6.624;2023-07-29T11:23:56;3.17;;;2.10;;
3875;SDS011;1953;51.222;6.624;2023-07-29T11:28:40;3.90;;;2.10;;
3875;SDS011;1953;51.222;6.624;2023-07-29T11:33:23;2.80;;;2.03;;
3875;SDS011;1953;51.222;6.624;2023-07-29T11:38:08;2.83;;;2.07;;
3875;SDS011;1953;51.222;6.624;2023-07-29T11:42:57;4.77;;;1.80;;
3875;SDS011;1953;51.222;6.624;2023-07-29T11:47:41;3.47;;;1.90;;
3875;SDS011;1953;51.222;6.624;2023-07-29T11:52:23;4.43;;;1.90;;
3875;SDS011;1953;51.222;6.624;2023-07-29T11:57:06;3.13;;;2.10;;
3875;SDS011;1953;51.222;6.624;2023-07-29T12:01:49;4.30;;;2.23;;
3875;SDS011;1953;51.222;6.624;2023-07-29T12:06:33;5.50;;;2.50;;
3875;SDS011;1953;51.222;6.624;2023-07-29T12:11:16;2.40;;;2.00;;
3875;SDS011;1953;51.222;6.624;2023-07-29T12:16:43;2.93;;;1.90;;
3875;SDS011;1953;51.222;6.624;2023-07-29T12:21:26;3.77;;;2.07;;
3875;SDS011;1953;51.222;6.624;2023-07-29T12:26:10;2.43;;;1.70;;
3875;SDS011;1953;51.222;6.624;2023-07-29T12:30:53;2.87;;;1.97;;
3875;SDS011;1953;51.222;6.624;2023-07-29T12:35:38;2.30;;;1.80;;
3875;SDS011;1953;51.222;6.624;2023-07-29T12:40:21;2.73;;;1.87;;
3875;SDS011;1953;51.222;6.624;2023-07-29T12:45:05;3.20;;;1.97;;
3875;SDS011;1953;51.222;6.624;2023-07-29T12:49:48;3.43;;;1.90;;
3875;SDS011;1953;51.222;6.624;2023-07-29T12:54:32;2.13;;;1.90;;
3875;SDS011;1953;51.222;6.624;2023-07-29T12:59:14;2.17;;;1.97;;
3875;SDS011;1953;51.222;6.624;2023-07-29T13:03:57;2.33;;;2.03;;
3875;SDS011;1953;51.222;6.624;2023-07-29T13:08:39;2.37;;;2.00;;
3875;SDS011;1953;51.222;6.624;2023-07-29T13:13:23;3.63;;;2.40;;
3875;SDS011;1953;51.222;6.624;2023-07-29T13:18:06;3.60;;;2.30;;
3875;SDS011;1953;51.222;6.624;2023-07-29T13:22:48;2.87;;;2.30;;
3875;SDS011;1953;51.222;6.624;2023-07-29T13:27:31;2.53;;;1.90;;
3875;SDS011;1953;51.222;6.624;2023-07-29T13:32:15;5.50;;;2.10;;
3875;SDS011;1953;51.222;6.624;2023-07-29T13:36:57;3.47;;;2.60;;
3875;SDS011;1953;51.222;6.624;2023-07-29T13:41:40;4.13;;;2.73;;
3875;SDS011;1953;51.222;6.624;2023-07-29T13:46:22;6.53;;;2.80;;
3875;SDS011;1953;51.222;6.624;2023-07-29T13:51:06;3.77;;;2.70;;
3875;SDS011;1953;51.222;6.624;2023-07-29T13:55:49;5.27;;;2.60;;
3875;SDS011;1953;51.222;6.624;2023-07-29T14:00:32;5.63;;;2.50;;
3875;SDS011;1953;51.222;6.624;2023-07-29T14:05:15;7.23;;;2.80;;
3875;SDS011;1953;51.222;6.624;2023-07-29T14:09:59;3.27;;;2.33;;
3875;SDS011;1953;51.222;6.624;2023-07-29T14:14:42;5.23;;;2.83;;
3875;SDS011;1953;51.222;6.624;2023-07-29T14:19:24;3.93;;;2.90;;
3875;SDS011;1953;51.222;6.624;2023-07-29T14:24:07;4.20;;;2.53;;
3875;SDS011;1953;51.222;6.624;2023-07-29T14:28:51;3.70;;;2.80;;
3875;SDS011;1953;51.222;6.624;2023-07-29T14:33:33;2.90;;;2.20;;
3875;SDS011;1953;51.222;6.624;2023-07-29T14:38:16;3.27;;;2.43;;
3875;SDS011;1953;51.222;6.624;2023-07-29T14:42:58;4.30;;;2.10;;
3875;SDS011;1953;51.222;6.624;2023-07-29T14:47:42;3.00;;;2.50;;
3875;SDS011;1953;51.222;6.624;2023-07-29T14:52:25;7.57;;;2.10;;
3875;SDS011;1953;51.222;6.624;2023-07-29T14:57:09;4.20;;;2.17;;
3875;SDS011;1953;51.222;6.624;2023-07-29T15:01:51;2.35;;;1.58;;
3875;SDS011;1953;51.222;6.624;2023-07-29T15:06:35;3.37;;;1.70;;
3875;SDS011;1953;51.222;6.624;2023-07-29T15:11:19;2.30;;;1.60;;
3875;SDS011;1953;51.222;6.624;2023-07-29T15:16:02;2.30;;;1.70;;
3875;SDS011;1953;51.222;6.624;2023-07-29T15:20:44;4.07;;;1.97;;
3875;SDS011;1953;51.222;6.624;2023-07-29T15:25:28;2.13;;;1.60;;
3875;SDS011;1953;51.222;6.624;2023-07-29T15:30:11;2.20;;;1.57;;
3875;SDS011;1953;51.222;6.624;2023-07-29T15:34:53;2.00;;;1.60;;
3875;SDS011;1953;51.222;6.624;2023-07-29T15:39:36;2.08;;;1.70;;
3875;SDS011;1953;51.222;6.624;2023-07-29T15:44:20;2.00;;;1.70;;
3875;SDS011;1953;51.222;6.624;2023-07-29T15:49:02;1.60;;;1.50;;
3875;SDS011;1953;51.222;6.624;2023-07-29T15:53:45;1.85;;;1.65;;
3875;SDS011;1953;51.222;6.624;2023-07-29T15:58:27;1.85;;;1.52;;
3875;SDS011;1953;51.222;6.624;2023-07-29T16:03:11;2.10;;;1.90;;
3875;SDS011;1953;51.222;6.624;2023-07-29T16:07:54;2.35;;;1.70;;
3875;SDS011;1953;51.222;6.624;2023-07-29T16:12:38;1.80;;;1.70;;
3875;SDS011;1953;51.222;6.624;2023-07-29T16:17:20;2.00;;;1.70;;
3875;SDS011;1953;51.222;6.624;2023-07-29T16:22:04;5.25;;;2.20;;
3875;SDS011;1953;51.222;6.624;2023-07-29T16:26:47;1.85;;;1.73;;
3875;SDS011;1953;51.222;6.624;2023-07-29T16:31:29;2.33;;;1.70;;
3875;SDS011;1953;51.222;6.624;2023-07-29T16:36:12;2.00;;;1.80;;
3875;SDS011;1953;51.222;6.624;2023-07-29T16:40:56;2.23;;;1.90;;
3875;SDS011;1953;51.222;6.624;2023-07-29T16:45:38;2.57;;;1.80;;
3875;SDS011;1953;51.222;6.624;2023-07-29T16:50:21;2.20;;;1.90;;
3875;SDS011;1953;51.222;6.624;2023-07-29T16:55:04;2.80;;;2.20;;
3875;SDS011;1953;51.222;6.624;2023-07-29T16:59:48;6.67;;;2.00;;
3875;SDS011;1953;51.222;6.624;2023-07-29T17:04:31;3.03;;;2.20;;
3875;SDS011;1953;51.222;6.624;2023-07-29T17:09:14;4.20;;;2.33;;
3875;SDS011;1953;51.222;6.624;2023-07-29T17:13:56;2.60;;;2.40;;
3875;SDS011;1953;51.222;6.624;2023-07-29T17:18:40;3.47;;;2.17;;
3875;SDS011;1953;51.222;6.624;2023-07-29T17:23:23;2.60;;;2.30;;
3875;SDS011;1953;51.222;6.624;2023-07-29T17:28:05;5.03;;;2.33;;
3875;SDS011;1953;51.222;6.624;2023-07-29T17:32:48;3.30;;;2.30;;
3875;SDS011;1953;51.222;6.624;2023-07-29T17:37:32;3.07;;;2.50;;
3875;SDS011;1953;51.222;6.624;2023-07-29T17:42:15;4.30;;;2.60;;
3875;SDS011;1953;51.222;6.624;2023-07-29T17:46:58;4.17;;;2.33;;
3875;SDS011;1953;51.222;6.624;2023-07-29T17:51:40;3.73;;;2.50;;
3875;SDS011;1953;51.222;6.624;2023-07-29T17:56:24;3.33;;;2.73;;
3875;SDS011;1953;51.222;6.624;2023-07-29T18:01:07;6.53;;;2.60;;
3875;SDS011;1953;51.222;6.624;2023-07-29T18:05:50;4.27;;;3.10;;
3875;SDS011;1953;51.222;6.624;2023-07-29T18:10:32;3.20;;;2.50;;
3875;SDS011;1953;51.222;6.624;2023-07-29T18:15:17;15.03;;;2.97;;
3875;SDS011;1953;51.222;6.624;2023-07-29T18:19:59;8.30;;;3.63;;
3875;SDS011;1953;51.222;6.624;2023-07-29T18:24:42;9.63;;;3.93;;
3875;SDS011;1953;51.222;6.624;2023-07-29T18:29:25;7.60;;;3.13;;
3875;SDS011;1953;51.222;6.624;2023-07-29T18:34:09;5.80;;;2.40;;
3875;SDS011;1953;51.222;6.624;2023-07-29T18:38:52;7.47;;;3.07;;
3875;SDS011;1953;51.222;6.624;2023-07-29T18:43:35;4.10;;;2.10;;
3875;SDS011;1953;51.222;6.624;2023-07-29T18:48:17;7.50;;;2.30;;
3875;SDS011;1953;51.222;6.624;2023-07-29T18:53:01;10.83;;;2.80;;
3875;SDS011;1953;51.222;6.624;2023-07-29T18:57:44;5.33;;;2.70;;
3875;SDS011;1953;51.222;6.624;2023-07-29T19:02:26;3.97;;;2.50;;
3875;SDS011;1953;51.222;6.624;2023-07-29T19:07:09;3.80;;;2.53;;
3875;SDS011;1953;51.222;6.624;2023-07-29T19:11:53;6.27;;;3.00;;
3875;SDS011;1953;51.222;6.624;2023-07-29T19:16:36;9.70;;;3.00;;
3875;SDS011;1953;51.222;6.624;2023-07-29T19:21:18;5.73;;;2.93;;
3875;SDS011;1953;51.222;6.624;2023-07-29T19:26:01;5.90;;;2.93;;
3875;SDS011;1953;51.222;6.624;2023-07-29T19:30:44;5.40;;;2.80;;
3875;SDS011;1953;51.222;6.624;2023-07-29T19:35:27;5.10;;;2.40;;
3875;SDS011;1953;51.222;6.624;2023-07-29T19:40:10;3.80;;;2.83;;
3875;SDS011;1953;51.222;6.624;2023-07-29T19:44:52;4.27;;;3.10;;
3875;SDS011;1953;51.222;6.624;2023-07-29T19:49:37;5.60;;;2.83;;
3875;SDS011;1953;51.222;6.624;2023-07-29T19:54:19;4.70;;;3.10;;
3875;SDS011;1953;51.222;6.624;2023-07-29T19:59:02;4.87;;;2.83;;
3875;SDS011;1953;51.222;6.624;2023-07-29T20:03:44;6.20;;;3.50;;
3875;SDS011;1953;51.222;6.624;2023-07-29T20:08:28;5.40;;;3.10;;
3875;SDS011;1953;51.222;6.624;2023-07-29T20:13:11;5.93;;;3.17;;
3875;SDS011;1953;51.222;6.624;2023-07-29T20:17:53;5.23;;;3.43;;
3875;SDS011;1953;51.222;6.624;2023-07-29T20:22:36;5.53;;;3.20;;
3875;SDS011;1953;51.222;6.624;2023-07-29T20:27:20;8.63;;;3.37;;
3875;SDS011;1953;51.222;6.624;2023-07-29T20:32:02;6.47;;;3.33;;
3875;SDS011;1953;51.222;6.624;2023-07-29T20:36:45;7.20;;;3.60;;
3875;SDS011;1953;51.222;6.624;2023-07-29T20:41:21;5.60;;;3.90;;
3875;SDS011;1953;51.222;6.624;2023-07-29T20:46:05;6.03;;;4.00;;
3875;SDS011;1953;51.222;6.624;2023-07-29T20:50:48;6.87;;;3.90;;
3875;SDS011;1953;51.222;6.624;2023-07-29T20:55:32;9.60;;;3.77;;
3875;SDS011;1953;51.222;6.624;2023-07-29T21:00:15;9.00;;;4.33;;
3875;SDS011;1953;51.222;6.624;2023-07-29T21:04:59;6.43;;;3.63;;
3875;SDS011;1953;51.222;6.624;2023-07-29T21:09:41;7.50;;;4.00;;
3875;SDS011;1953;51.222;6.624;2023-07-29T21:14:24;9.13;;;4.00;;
3875;SDS011;1953;51.222;6.624;2023-07-29T21:19:06;5.50;;;4.10;;
3875;SDS011;1953;51.222;6.624;2023-07-29T21:23:50;7.90;;;4.70;;
3875;SDS011;1953;51.222;6.624;2023-07-29T21:28:33;8.37;;;4.50;;
3875;SDS011;1953;51.222;6.624;2023-07-29T21:33:15;7.13;;;3.83;;
3875;SDS011;1953;51.222;6.624;2023-07-29T21:37:58;5.43;;;4.20;;
3875;SDS011;1953;51.222;6.624;2023-07-29T21:42:42;6.07;;;3.57;;
3875;SDS011;1953;51.222;6.624;2023-07-29T21:47:24;7.50;;;3.83;;
3875;SDS011;1953;51.222;6.624;2023-07-29T21:52:07;5.57;;;3.50;;
3875;SDS011;1953;51.222;6.624;2023-07-29T21:56:49;7.50;;;4.20;;
3875;SDS011;1953;51.222;6.624;2023-07-29T22:01:33;7.83;;;3.90;;
3875;SDS011;1953;51.222;6.624;2023-07-29T22:06:16;6.70;;;4.47;;
3875;SDS011;1953;51.222;6.624;2023-07-29T22:11:01;7.33;;;4.70;;
3875;SDS011;1953;51.222;6.624;2023-07-29T22:15:44;8.37;;;4.57;;
3875;SDS011;1953;51.222;6.624;2023-07-29T22:20:28;6.23;;;4.27;;
3875;SDS011;1953;51.222;6.624;2023-07-29T22:25:11;7.57;;;4.30;;
3875;SDS011;1953;51.222;6.624;2023-07-29T22:29:53;6.60;;;4.33;;
3875;SDS011;1953;51.222;6.624;2023-07-29T22:34:36;5.67;;;4.00;;
3875;SDS011;1953;51.222;6.624;2023-07-29T22:39:20;5.37;;;3.80;;
3875;SDS011;1953;51.222;6.624;2023-07-29T22:44:02;7.57;;;4.60;;
3875;SDS011;1953;51.222;6.624;2023-07-29T22:48:45;7.20;;;4.23;;
3875;SDS011;1953;51.222;6.624;2023-07-29T22:53:28;6.63;;;5.03;;
3875;SDS011;1953;51.222;6.624;2023-07-29T22:58:12;10.63;;;4.87;;
3875;SDS011;1953;51.222;6.624;2023-07-29T23:02:54;7.40;;;4.60;;
3875;SDS011;1953;51.222;6.624;2023-07-29T23:07:37;7.80;;;3.60;;
3875;SDS011;1953;51.222;6.624;2023-07-29T23:12:20;6.40;;;4.37;;
3875;SDS011;1953;51.222;6.624;2023-07-29T23:17:04;9.30;;;4.80;;
3875;SDS011;1953;51.222;6.624;2023-07-29T23:21:46;8.00;;;5.10;;
3875;SDS011;1953;51.222;6.624;2023-07-29T23:26:29;7.57;;;4.80;;
3875;SDS011;1953;51.222;6.624;2023-07-29T23:31:12;8.57;;;4.30;;
3875;SDS011;1953;51.222;6.624;2023-07-29T23:35:59;7.70;;;4.70;;
3875;SDS011;1953;51.222;6.624;2023-07-29T23:40:42;8.43;;;4.03;;
3875;SDS011;1953;51.222;6.624;2023-07-29T23:45:24;9.50;;;4.50;;
3875;SDS011;1953;51.222;6.624;2023-07-29T23:50:07;14.07;;;5.00;;
3875;SDS011;1953;51.222;6.624;2023-07-29T23:54:51;6.47;;;4.33;;
3875;SDS011;1953;51.222;6.624;2023-07-29T23:59:34;8.80;;;4.87;;
